createdAt,value
2017-07-22T00:00:24.485Z,6.87
2017-07-22T00:02:59.673Z,7.20
2017-07-22T00:05:28.638Z,7.00
2017-07-22T00:07:57.601Z,8.73
2017-07-22T00:10:26.551Z,8.43
2017-07-22T00:12:55.540Z,10.07
2017-07-22T00:15:24.529Z,8.13
2017-07-22T00:17:53.475Z,7.60
2017-07-22T00:20:22.458Z,7.20
2017-07-22T00:22:51.437Z,8.40
2017-07-22T00:25:20.430Z,7.43
2017-07-22T00:27:49.369Z,8.13
2017-07-22T00:30:18.354Z,7.70
2017-07-22T00:32:47.333Z,6.70
2017-07-22T00:35:16.245Z,8.07
2017-07-22T00:37:45.228Z,8.20
2017-07-22T00:40:14.216Z,7.67
2017-07-22T00:42:43.208Z,8.30
2017-07-22T00:45:12.228Z,8.73
2017-07-22T00:47:41.209Z,7.20
2017-07-22T00:50:10.198Z,9.10
2017-07-22T00:52:39.301Z,8.10
2017-07-22T00:55:08.238Z,7.87
2017-07-22T00:57:37.533Z,9.03
2017-07-22T01:00:06.509Z,8.90
2017-07-22T01:02:35.449Z,8.90
2017-07-22T01:05:04.422Z,8.60
2017-07-22T01:07:33.363Z,9.47
2017-07-22T01:10:02.318Z,8.50
2017-07-22T01:12:31.341Z,11.40
2017-07-22T01:15:00.361Z,7.73
2017-07-22T01:17:29.349Z,8.33
2017-07-22T01:19:58.274Z,7.97
2017-07-22T01:22:27.419Z,12.47
2017-07-22T01:24:56.357Z,8.37
2017-07-22T01:27:25.329Z,9.00
2017-07-22T01:29:54.281Z,8.30
2017-07-22T01:32:23.312Z,8.73
2017-07-22T01:34:52.286Z,8.87
2017-07-22T01:37:21.305Z,8.40
2017-07-22T01:39:50.349Z,9.07
2017-07-22T01:42:19.286Z,12.00
2017-07-22T01:44:48.242Z,9.10
2017-07-22T01:47:17.288Z,8.37
2017-07-22T01:49:46.381Z,9.37
2017-07-22T01:52:15.373Z,8.77
2017-07-22T01:54:44.370Z,11.93
2017-07-22T01:57:13.394Z,8.10
2017-07-22T01:59:42.629Z,10.27
2017-07-22T02:02:11.653Z,11.23
2017-07-22T02:04:40.617Z,10.17
2017-07-22T02:07:09.607Z,10.07
2017-07-22T02:09:38.608Z,10.77
2017-07-22T02:12:07.611Z,9.50
2017-07-22T02:14:36.598Z,8.43
2017-07-22T02:17:05.913Z,9.40
2017-07-22T02:19:34.856Z,9.00
2017-07-22T02:22:03.785Z,6.87
2017-07-22T02:24:32.763Z,8.17
2017-07-22T02:27:02.315Z,7.53
2017-07-22T02:29:31.317Z,9.23
2017-07-22T02:32:00.311Z,9.10
2017-07-22T02:34:29.261Z,12.20
2017-07-22T02:36:58.269Z,11.53
2017-07-22T02:39:27.213Z,11.00
2017-07-22T02:41:56.202Z,12.57
2017-07-22T02:44:25.145Z,12.10
2017-07-22T02:46:54.101Z,15.50
2017-07-22T02:49:23.110Z,10.63
2017-07-22T02:51:52.094Z,12.50
2017-07-22T02:54:21.126Z,12.47
2017-07-22T02:56:50.206Z,11.87
2017-07-22T02:59:19.494Z,11.00
2017-07-22T03:01:48.761Z,11.23
2017-07-22T03:04:17.749Z,13.67
2017-07-22T03:06:46.693Z,10.63
2017-07-22T03:09:15.690Z,13.07
2017-07-22T03:11:44.625Z,13.53
2017-07-22T03:14:13.601Z,14.30
2017-07-22T03:16:42.550Z,12.00
2017-07-22T03:19:11.546Z,10.70
2017-07-22T03:21:40.532Z,10.27
2017-07-22T03:24:09.514Z,12.57
2017-07-22T03:26:38.529Z,10.60
2017-07-22T03:29:07.477Z,11.57
2017-07-22T03:31:36.428Z,10.20
2017-07-22T03:34:05.370Z,10.40
2017-07-22T03:36:34.295Z,10.10
2017-07-22T03:39:03.394Z,10.67
2017-07-22T03:41:32.337Z,11.73
2017-07-22T03:44:01.268Z,9.90
2017-07-22T03:46:30.226Z,9.60
2017-07-22T03:48:59.160Z,10.50
2017-07-22T03:51:28.096Z,8.93
2017-07-22T03:53:57.061Z,10.70
2017-07-22T03:56:26.040Z,10.50
2017-07-22T03:58:55.120Z,10.50
2017-07-22T04:01:24.093Z,9.30
2017-07-22T04:03:53.341Z,12.37
2017-07-22T04:06:22.450Z,11.40
2017-07-22T04:08:51.666Z,9.73
2017-07-22T04:11:20.656Z,10.10
2017-07-22T04:13:49.601Z,9.50
2017-07-22T04:16:18.553Z,9.03
2017-07-22T04:18:47.504Z,9.20
2017-07-22T04:21:16.672Z,8.20
2017-07-22T04:23:45.699Z,8.83
2017-07-22T04:26:14.653Z,9.37
2017-07-22T04:28:43.624Z,8.67
2017-07-22T04:31:12.592Z,9.37
2017-07-22T04:33:41.576Z,9.23
2017-07-22T04:36:10.618Z,7.97
2017-07-22T04:38:39.702Z,7.63
2017-07-22T04:41:08.630Z,7.90
2017-07-22T04:43:37.609Z,8.30
2017-07-22T04:46:06.520Z,7.90
2017-07-22T04:48:35.458Z,7.73
2017-07-22T04:51:04.425Z,6.97
2017-07-22T04:53:33.450Z,7.87
2017-07-22T04:56:02.620Z,5.83
2017-07-22T04:58:31.632Z,6.57
2017-07-22T05:01:00.618Z,6.30
2017-07-22T05:03:29.611Z,6.83
2017-07-22T05:05:58.569Z,6.87
2017-07-22T05:08:27.587Z,6.90
2017-07-22T05:10:56.516Z,6.40
2017-07-22T05:13:25.466Z,7.00
2017-07-22T05:15:54.483Z,7.20
2017-07-22T05:18:23.485Z,7.20
2017-07-22T05:20:52.493Z,7.27
2017-07-22T05:23:21.495Z,7.17
2017-07-22T05:25:50.470Z,7.17
2017-07-22T05:28:19.515Z,7.30
2017-07-22T05:30:48.515Z,6.13
2017-07-22T05:33:17.512Z,7.20
2017-07-22T05:35:46.828Z,6.90
2017-07-22T05:38:15.789Z,6.70
2017-07-22T05:40:44.717Z,7.80
2017-07-22T05:43:13.773Z,6.90
2017-07-22T05:45:42.817Z,6.23
2017-07-22T05:48:11.758Z,7.60
2017-07-22T05:50:40.909Z,7.73
2017-07-22T05:53:09.910Z,8.23
2017-07-22T05:55:38.922Z,7.43
2017-07-22T05:58:07.902Z,7.63
2017-07-22T06:00:36.951Z,11.73
2017-07-22T06:03:05.903Z,7.30
2017-07-22T06:05:34.850Z,6.77
2017-07-22T06:08:03.882Z,6.50
2017-07-22T06:10:32.833Z,7.70
2017-07-22T06:13:01.762Z,6.73
2017-07-22T06:15:30.739Z,6.83
2017-07-22T06:17:59.734Z,6.37
2017-07-22T06:20:28.720Z,6.90
2017-07-22T06:22:57.976Z,6.70
2017-07-22T06:25:26.922Z,6.80
2017-07-22T06:27:55.866Z,10.57
2017-07-22T06:30:24.866Z,7.77
2017-07-22T06:32:53.826Z,8.53
2017-07-22T06:35:22.822Z,7.37
2017-07-22T06:37:51.839Z,8.07
2017-07-22T06:41:40.157Z,7.90
2017-07-22T06:44:09.126Z,6.20
2017-07-22T06:46:38.101Z,8.33
2017-07-22T06:49:07.037Z,7.40
2017-07-22T06:51:36.083Z,10.60
2017-07-22T06:54:05.044Z,8.70
2017-07-22T06:56:33.989Z,8.00
2017-07-22T06:59:02.989Z,8.57
2017-07-22T07:01:31.952Z,7.40
2017-07-22T07:04:00.957Z,8.50
2017-07-22T07:06:29.953Z,8.20
2017-07-22T07:08:59.369Z,7.43
2017-07-22T07:11:28.339Z,7.60
2017-07-22T07:13:57.399Z,7.73
2017-07-22T07:16:26.376Z,7.30
2017-07-22T07:18:55.311Z,8.40
2017-07-22T07:21:24.320Z,7.20
2017-07-22T07:23:53.300Z,7.43
2017-07-22T07:26:22.301Z,7.10
2017-07-22T07:28:51.322Z,7.47
2017-07-22T07:31:20.289Z,6.80
2017-07-22T07:33:49.274Z,7.97
2017-07-22T07:36:18.243Z,6.70
2017-07-22T07:38:47.212Z,6.67
2017-07-22T07:41:16.170Z,6.10
2017-07-22T07:43:45.166Z,5.83
2017-07-22T07:46:14.177Z,6.27
2017-07-22T07:48:43.240Z,5.97
2017-07-22T07:51:12.201Z,6.83
2017-07-22T07:53:41.207Z,6.67
2017-07-22T07:56:10.230Z,5.03
2017-07-22T07:58:39.267Z,5.77
2017-07-22T08:01:08.235Z,5.37
2017-07-22T08:03:37.254Z,5.87
2017-07-22T08:06:06.247Z,5.20
2017-07-22T08:08:35.347Z,5.80
2017-07-22T08:11:04.393Z,5.10
2017-07-22T08:13:33.408Z,4.70
2017-07-22T08:16:02.390Z,5.30
2017-07-22T08:18:31.400Z,4.90
2017-07-22T08:21:00.544Z,4.97
2017-07-22T08:23:29.553Z,5.23
2017-07-22T08:25:58.535Z,5.47
2017-07-22T08:28:27.538Z,4.87
2017-07-22T08:30:56.575Z,4.90
2017-07-22T08:33:25.624Z,4.33
2017-07-22T08:35:54.657Z,4.60
2017-07-22T08:38:23.992Z,7.90
2017-07-22T08:40:53.076Z,5.10
2017-07-22T08:43:22.086Z,5.23
2017-07-22T08:45:51.219Z,6.03
2017-07-22T08:48:20.920Z,4.53
2017-07-22T08:50:49.958Z,4.23
2017-07-22T08:53:18.937Z,4.00
2017-07-22T08:55:47.933Z,4.50
2017-07-22T08:58:16.917Z,4.00
2017-07-22T09:00:45.951Z,4.07
2017-07-22T09:03:14.929Z,3.73
2017-07-22T09:05:43.994Z,4.70
2017-07-22T09:08:13.122Z,4.50
2017-07-22T09:10:42.134Z,3.90
2017-07-22T09:13:11.123Z,3.50
2017-07-22T09:15:40.116Z,3.90
2017-07-22T09:18:09.190Z,3.83
2017-07-22T09:20:39.116Z,3.83
2017-07-22T09:23:08.146Z,4.23
2017-07-22T09:25:37.283Z,4.43
2017-07-22T09:28:06.378Z,4.93
2017-07-22T09:30:35.361Z,3.90
2017-07-22T09:33:04.474Z,4.57
2017-07-22T09:35:33.480Z,4.77
2017-07-22T09:38:02.595Z,3.90
2017-07-22T09:40:31.574Z,4.90
2017-07-22T09:43:00.601Z,4.37
2017-07-22T09:45:29.629Z,3.87
2017-07-22T09:47:58.618Z,4.73
2017-07-22T09:50:27.623Z,4.27
2017-07-22T09:52:56.592Z,5.27
2017-07-22T09:55:25.659Z,4.73
2017-07-22T09:57:54.652Z,4.87
2017-07-22T10:00:23.813Z,4.87
2017-07-22T10:02:52.873Z,4.90
2017-07-22T10:05:22.001Z,5.03
2017-07-22T10:07:51.359Z,4.40
2017-07-22T10:10:20.353Z,4.50
2017-07-22T10:12:49.443Z,3.60
2017-07-22T10:15:18.474Z,3.73
2017-07-22T10:17:47.666Z,3.60
2017-07-22T10:20:16.720Z,3.87
2017-07-22T10:22:45.715Z,3.03
2017-07-22T10:25:14.693Z,3.20
2017-07-22T10:27:43.800Z,3.43
2017-07-22T10:30:12.782Z,3.70
2017-07-22T10:32:41.812Z,3.00
2017-07-22T10:35:11.236Z,3.30
2017-07-22T10:37:40.430Z,3.37
2017-07-22T10:40:09.385Z,3.37
2017-07-22T10:42:38.502Z,3.30
2017-07-22T10:46:26.962Z,3.57
2017-07-22T10:48:55.979Z,3.60
2017-07-22T10:51:24.983Z,3.73
2017-07-22T10:53:54.005Z,3.77
2017-07-22T10:56:23.411Z,3.07
2017-07-22T10:58:53.125Z,3.70
2017-07-22T11:01:22.793Z,3.60
2017-07-22T11:03:52.432Z,3.10
2017-07-22T11:06:21.406Z,2.90
2017-07-22T11:08:50.532Z,3.20
2017-07-22T11:11:19.524Z,3.30
2017-07-22T11:13:48.508Z,3.47
2017-07-22T11:16:18.309Z,2.90
2017-07-22T11:18:47.293Z,2.87
2017-07-22T11:21:17.222Z,2.90
2017-07-22T11:23:47.790Z,3.43
2017-07-22T11:26:16.920Z,3.17
2017-07-22T11:28:46.383Z,3.03
2017-07-22T11:31:15.358Z,3.37
2017-07-22T11:33:44.397Z,3.30
2017-07-22T11:36:13.467Z,3.40
2017-07-22T11:38:42.473Z,3.40
2017-07-22T11:41:11.632Z,3.93
2017-07-22T11:44:11.279Z,3.30
2017-07-22T11:46:40.297Z,3.63
2017-07-22T11:49:09.277Z,3.70
2017-07-22T11:51:38.847Z,3.63
2017-07-22T11:54:07.924Z,4.60
2017-07-22T11:56:37.476Z,3.90
2017-07-22T11:59:06.992Z,3.83
2017-07-22T12:01:36.023Z,4.07
2017-07-22T12:04:37.178Z,4.10
2017-07-22T12:07:06.198Z,4.13
2017-07-22T12:09:35.590Z,3.43
2017-07-22T12:12:04.605Z,4.63
2017-07-22T12:14:33.842Z,3.60
2017-07-22T12:17:02.864Z,3.50
2017-07-22T12:19:33.199Z,9.57
2017-07-22T12:22:02.258Z,4.73
2017-07-22T12:24:31.551Z,4.13
2017-07-22T12:27:00.548Z,3.80
2017-07-22T12:29:30.348Z,3.37
2017-07-22T12:32:00.201Z,4.30
2017-07-22T12:34:34.635Z,4.97
2017-07-22T12:37:03.670Z,5.00
2017-07-22T12:39:32.679Z,6.73
2017-07-22T12:42:02.489Z,4.13
2017-07-22T12:44:33.406Z,4.13
2017-07-22T12:47:04.000Z,3.57
2017-07-22T12:49:34.423Z,4.00
2017-07-22T12:52:04.404Z,3.87
2017-07-22T12:54:33.494Z,3.67
2017-07-22T12:57:06.184Z,4.90
2017-07-22T12:59:36.163Z,4.20
2017-07-22T13:02:05.184Z,4.07
2017-07-22T13:04:34.326Z,6.13
2017-07-22T13:07:04.006Z,4.57
2017-07-22T13:09:33.488Z,5.90
2017-07-22T13:12:03.545Z,3.87
2017-07-22T13:14:34.039Z,4.97
2017-07-22T13:17:03.155Z,6.87
2017-07-22T13:19:32.843Z,4.27
2017-07-22T13:22:31.982Z,4.97
2017-07-22T13:25:01.404Z,3.70
2017-07-22T13:27:30.426Z,5.13
2017-07-22T13:30:00.023Z,3.93
2017-07-22T13:32:29.027Z,3.93
2017-07-22T13:34:58.657Z,3.63
2017-07-22T13:37:28.370Z,3.60
2017-07-22T13:39:57.352Z,3.67
2017-07-22T13:42:27.112Z,3.93
2017-07-22T13:44:56.082Z,4.70
2017-07-22T13:47:25.310Z,4.70
2017-07-22T13:49:54.400Z,4.07
2017-07-22T13:52:24.226Z,5.37
2017-07-22T13:54:54.329Z,5.30
2017-07-22T13:57:24.837Z,4.37
2017-07-22T14:00:24.454Z,3.73
2017-07-22T14:02:54.031Z,6.73
2017-07-22T14:05:23.640Z,4.00
2017-07-22T14:07:52.642Z,3.30
2017-07-22T14:10:21.703Z,3.43
2017-07-22T14:12:51.301Z,3.27
2017-07-22T14:15:20.302Z,3.97
2017-07-22T14:17:49.297Z,3.90
2017-07-22T14:20:18.306Z,4.50
2017-07-22T14:22:48.575Z,3.80
2017-07-22T14:25:17.583Z,4.00
2017-07-22T14:27:47.416Z,3.67
2017-07-22T14:30:16.456Z,4.60
2017-07-22T14:32:45.446Z,4.27
2017-07-22T14:35:14.874Z,4.40
2017-07-22T14:37:44.278Z,4.13
2017-07-22T14:40:14.082Z,4.90
2017-07-22T14:42:43.065Z,4.70
2017-07-22T14:45:12.134Z,4.10
2017-07-22T14:47:43.293Z,5.93
2017-07-22T14:50:12.952Z,4.63
2017-07-22T14:52:42.033Z,5.13
2017-07-22T14:55:11.643Z,4.10
2017-07-22T14:57:40.669Z,4.03
2017-07-22T15:00:10.430Z,4.73
2017-07-22T15:02:39.462Z,4.53
2017-07-22T15:05:09.146Z,5.00
2017-07-22T15:07:38.894Z,4.00
2017-07-22T15:10:08.603Z,4.47
2017-07-22T15:12:38.470Z,4.20
2017-07-22T15:15:07.488Z,4.70
2017-07-22T15:17:36.718Z,4.23
2017-07-22T15:20:05.764Z,5.30
2017-07-22T15:22:35.002Z,5.37
2017-07-22T15:25:05.148Z,5.10
2017-07-22T15:27:35.766Z,4.90
2017-07-22T15:30:05.278Z,4.23
2017-07-22T15:32:34.330Z,5.07
2017-07-22T15:35:06.969Z,3.93
2017-07-22T15:37:36.730Z,4.83
2017-07-22T15:40:06.423Z,4.07
2017-07-22T15:42:35.493Z,4.97
2017-07-22T15:45:05.274Z,4.00
2017-07-22T15:47:37.169Z,4.20
2017-07-22T15:50:07.640Z,4.73
2017-07-22T15:52:38.341Z,5.97
2017-07-22T15:55:07.673Z,4.83
2017-07-22T15:57:36.826Z,5.30
2017-07-22T16:00:06.997Z,4.50
2017-07-22T16:02:37.350Z,5.20
2017-07-22T16:05:08.180Z,4.67
2017-07-22T16:07:38.066Z,6.33
2017-07-22T16:10:07.914Z,4.60
2017-07-22T16:12:37.761Z,4.70
2017-07-22T16:15:06.737Z,3.83
2017-07-22T16:17:35.740Z,6.47
2017-07-22T16:20:05.446Z,4.77
2017-07-22T16:22:34.566Z,4.63
2017-07-22T16:25:03.591Z,4.53
2017-07-22T16:27:33.399Z,5.50
2017-07-22T16:30:04.356Z,5.00
2017-07-22T16:32:34.133Z,4.67
2017-07-22T16:35:04.284Z,4.30
2017-07-22T16:37:34.270Z,4.90
2017-07-22T16:40:04.180Z,4.30
2017-07-22T16:42:34.013Z,5.43
2017-07-22T16:45:03.001Z,6.57
2017-07-22T16:47:32.749Z,4.37
2017-07-22T16:50:02.622Z,4.77
2017-07-22T16:52:33.306Z,4.10
2017-07-22T16:55:03.114Z,4.40
2017-07-22T16:57:32.810Z,5.13
2017-07-22T17:00:03.686Z,5.37
2017-07-22T17:02:34.218Z,4.43
2017-07-22T17:05:03.779Z,4.27
2017-07-22T17:07:32.759Z,4.30
2017-07-22T17:10:02.666Z,4.50
2017-07-22T17:12:32.448Z,4.53
2017-07-22T17:15:01.511Z,4.27
2017-07-22T17:17:31.394Z,4.03
2017-07-22T17:20:00.374Z,5.50
2017-07-22T17:22:29.397Z,5.47
2017-07-22T17:24:58.507Z,4.50
2017-07-22T17:27:29.017Z,4.63
2017-07-22T17:30:00.941Z,4.87
2017-07-22T17:32:29.997Z,4.40
2017-07-22T17:34:59.830Z,5.07
2017-07-22T17:37:30.673Z,4.27
2017-07-22T17:40:00.773Z,4.47
2017-07-22T17:42:29.829Z,4.53
2017-07-22T17:45:00.010Z,4.30
2017-07-22T17:47:29.077Z,3.93
2017-07-22T17:49:58.184Z,4.00
2017-07-22T17:52:27.809Z,3.90
2017-07-22T17:54:58.799Z,3.73
2017-07-22T17:57:29.122Z,3.63
2017-07-22T18:00:00.333Z,4.13
2017-07-22T18:02:29.328Z,3.73
2017-07-22T18:04:58.433Z,4.03
2017-07-22T18:07:27.518Z,4.70
2017-07-22T18:09:58.205Z,3.97
2017-07-22T18:12:29.141Z,4.17
2017-07-22T18:15:00.702Z,3.77
2017-07-22T18:17:30.575Z,3.80
2017-07-22T18:19:59.896Z,3.73
2017-07-22T18:22:28.907Z,4.20
2017-07-22T18:24:57.955Z,6.23
2017-07-22T18:27:27.853Z,4.00
2017-07-22T18:29:59.368Z,4.87
2017-07-22T18:32:28.417Z,4.37
2017-07-22T18:34:57.498Z,3.53
2017-07-22T18:37:26.569Z,5.30
2017-07-22T18:39:55.632Z,4.20
2017-07-22T18:42:24.659Z,4.27
2017-07-22T18:44:54.504Z,4.30
2017-07-22T18:47:23.539Z,4.43
2017-07-22T18:49:54.234Z,4.97
2017-07-22T18:52:23.233Z,4.20
2017-07-22T18:54:52.226Z,3.53
2017-07-22T18:57:22.149Z,4.43
2017-07-22T18:59:51.162Z,7.97
2017-07-22T19:02:23.111Z,5.60
2017-07-22T19:04:53.007Z,4.97
2017-07-22T19:07:22.014Z,4.97
2017-07-22T19:09:51.905Z,4.80
2017-07-22T19:12:21.218Z,4.73
2017-07-22T19:15:52.534Z,5.30
2017-07-22T19:18:23.410Z,4.63
2017-07-22T19:20:52.420Z,5.60
2017-07-22T19:23:24.057Z,4.37
2017-07-22T19:25:54.809Z,4.27
2017-07-22T19:28:23.980Z,4.27
2017-07-22T19:30:52.975Z,4.90
2017-07-22T19:33:22.911Z,4.93
2017-07-22T19:35:53.086Z,4.83
2017-07-22T19:38:24.833Z,4.90
2017-07-22T19:40:53.978Z,4.50
2017-07-22T19:43:25.179Z,4.20
2017-07-22T19:45:54.933Z,4.30
2017-07-22T19:48:25.714Z,4.10
2017-07-22T19:50:56.526Z,4.97
2017-07-22T19:53:26.435Z,4.87
2017-07-22T19:56:00.030Z,4.90
2017-07-22T19:58:30.057Z,4.40
2017-07-22T20:00:59.041Z,4.80
2017-07-22T20:03:28.095Z,4.83
2017-07-22T20:05:59.557Z,5.10
2017-07-22T20:09:31.172Z,4.30
2017-07-22T20:12:05.483Z,4.63
2017-07-22T20:14:36.837Z,6.57
2017-07-22T20:17:05.930Z,8.13
2017-07-22T20:19:36.818Z,5.37
2017-07-22T20:22:05.825Z,5.03
2017-07-22T20:24:34.886Z,5.77
2017-07-22T20:27:03.902Z,4.97
2017-07-22T20:29:33.008Z,5.00
2017-07-22T20:32:06.873Z,5.07
2017-07-22T20:34:35.950Z,5.10
2017-07-22T20:37:05.901Z,4.97
2017-07-22T20:39:34.881Z,5.00
2017-07-22T20:42:03.939Z,5.47
2017-07-22T20:44:36.453Z,5.33
2017-07-22T20:47:05.447Z,4.70
2017-07-22T20:49:36.199Z,5.20
2017-07-22T20:52:06.063Z,5.77
2017-07-22T20:54:35.052Z,4.60
2017-07-22T20:57:04.985Z,5.50
2017-07-22T20:59:34.933Z,5.10
2017-07-22T21:02:05.758Z,4.67
2017-07-22T21:04:37.492Z,5.33
2017-07-22T21:07:06.561Z,5.40
2017-07-22T21:09:36.449Z,4.60
2017-07-22T21:12:10.202Z,5.50
2017-07-22T21:14:39.280Z,4.90
2017-07-22T21:17:08.365Z,7.73
2017-07-22T21:19:39.466Z,5.60
2017-07-22T21:22:09.418Z,5.37
2017-07-22T21:24:44.115Z,6.80
2017-07-22T21:27:15.125Z,4.93
2017-07-22T21:30:14.522Z,5.40
2017-07-22T21:32:44.390Z,5.80
2017-07-22T21:35:16.953Z,5.40
2017-07-22T21:37:46.682Z,5.07
2017-07-22T21:40:15.651Z,5.53
2017-07-22T21:42:46.457Z,6.07
2017-07-22T21:45:15.521Z,7.87
2017-07-22T21:47:46.188Z,6.53
2017-07-22T21:50:15.992Z,7.80
2017-07-22T21:52:47.303Z,5.77
2017-07-22T21:55:16.269Z,5.67
2017-07-22T21:57:46.115Z,6.80
2017-07-22T22:00:15.121Z,5.80
2017-07-22T22:02:47.385Z,7.40
2017-07-22T22:05:16.386Z,10.40
2017-07-22T22:07:46.233Z,6.07
2017-07-22T22:10:15.234Z,7.27
2017-07-22T22:15:19.738Z,6.00
2017-07-22T22:17:51.059Z,5.60
2017-07-22T22:20:20.218Z,6.00
2017-07-22T22:22:49.969Z,5.90
2017-07-22T22:25:20.418Z,6.03
2017-07-22T22:27:50.857Z,6.00
2017-07-22T22:30:19.870Z,11.50
2017-07-22T22:32:49.728Z,18.20
2017-07-22T22:35:19.029Z,22.90
2017-07-22T22:37:48.397Z,18.63
2017-07-22T22:41:38.000Z,11.93
2017-07-22T22:44:07.425Z,8.47
2017-07-22T22:46:36.664Z,10.77
2017-07-22T22:49:06.062Z,8.00
2017-07-22T22:51:35.233Z,6.20
2017-07-22T22:54:04.809Z,6.73
2017-07-22T22:56:33.989Z,7.37
2017-07-22T23:12:26.078Z,6.70
2017-07-22T23:15:57.675Z,11.37
2017-07-22T23:18:26.682Z,8.53
2017-07-22T23:20:55.760Z,7.27
2017-07-22T23:23:24.947Z,6.53
2017-07-22T23:25:53.941Z,6.17
2017-07-22T23:28:23.210Z,6.97
2017-07-22T23:30:52.169Z,6.80
2017-07-22T23:33:21.798Z,8.60
2017-07-22T23:35:50.768Z,7.67
2017-07-22T23:38:19.729Z,7.43
2017-07-22T23:40:48.692Z,6.50
2017-07-22T23:43:17.642Z,7.67
2017-07-22T23:45:46.608Z,7.67
2017-07-22T23:48:15.614Z,6.63
2017-07-22T23:50:44.585Z,7.57
2017-07-22T23:53:13.561Z,6.93
2017-07-22T23:55:42.511Z,6.87
2017-07-22T23:58:11.495Z,7.90
